EGHH/BOH METAR and TAF weather

Enter ICAO airport designator
Station Type Date Time Source
EGHH METAR 2020/02/16 19:50 UTC NOAA

EGHH 161950Z 25020KT 9999 FEW038 09/03 Q1002


Station Type Date Time Source
EGHH Decoded METAR 2020/02/16 19:50 UTC NOAA

Bournemouth Airport, United Kingdom (EGHH) 50-47N 001-50W 0M
Feb 16, 2020 - 02:50 PM EST / 2020.02.16 1950 UTC
Wind: from the WSW (250 degrees) at 23 MPH (20 KT):0
Visibility: greater than 7 mile(s):0
Sky conditions: mostly clear
Temperature: 48 F (9 C)
Dew Point: 37 F (3 C)
Relative Humidity: 66%
Pressure (altimeter): 29.59 in. Hg (1002 hPa)
ob: EGHH 161950Z 25020KT 9999 FEW038 09/03 Q1002
cycle: 20

Station Type Date Time Source
EGHH TAF 2013/12/01 21:21 UTC NOAA

TAF TAF EGHH 010016Z 3021/0106 CNL

Example: see airport list